createdAt,value
2023-01-22T00:03:56.503Z,15.87
2023-01-22T00:09:05.147Z,6.93
2023-01-22T00:14:13.077Z,6.27
2023-01-22T00:19:20.596Z,15.77
2023-01-22T00:24:28.666Z,8.73
2023-01-22T00:29:35.485Z,6.37
2023-01-22T00:34:42.476Z,5.50
2023-01-22T00:39:49.398Z,8.17
2023-01-22T00:44:57.064Z,6.57
2023-01-22T00:50:04.450Z,5.60
2023-01-22T00:55:11.615Z,5.40
2023-01-22T01:00:20.517Z,5.30
2023-01-22T01:05:28.781Z,4.83
2023-01-22T01:10:35.984Z,6.27
2023-01-22T01:15:43.530Z,4.63
2023-01-22T01:20:53.455Z,4.23
2023-01-22T01:26:00.348Z,4.37
2023-01-22T01:31:10.022Z,4.90
2023-01-22T01:36:35.492Z,3.90
2023-01-22T01:41:28.612Z,5.83
2023-01-22T01:46:38.468Z,6.30
2023-01-22T01:51:46.967Z,4.60
2023-01-22T01:56:56.906Z,4.20
2023-01-22T02:02:05.496Z,5.30
2023-01-22T02:07:12.495Z,5.37
2023-01-22T02:12:20.617Z,14.30
2023-01-22T02:17:27.645Z,5.20
2023-01-22T02:22:37.394Z,4.87
2023-01-22T02:27:44.272Z,6.10
2023-01-22T02:33:06.841Z,5.80
2023-01-22T02:38:27.641Z,5.30
2023-01-22T02:43:34.639Z,14.37
2023-01-22T02:48:43.070Z,5.33
2023-01-22T02:53:50.276Z,4.63
2023-01-22T02:58:57.705Z,5.53
2023-01-22T03:04:08.932Z,6.77
2023-01-22T03:09:17.481Z,5.40
2023-01-22T03:14:26.028Z,7.03
2023-01-22T03:19:34.560Z,5.67
2023-01-22T03:24:46.830Z,22.17
2023-01-22T03:29:53.950Z,35.80
2023-01-22T03:35:01.975Z,10.93
2023-01-22T03:40:11.356Z,5.73
2023-01-22T03:45:18.670Z,5.23
2023-01-22T03:50:26.905Z,5.43
2023-01-22T03:55:33.827Z,5.67
2023-01-22T04:00:42.131Z,6.37
2023-01-22T04:05:49.328Z,5.80
2023-01-22T04:10:58.511Z,6.90
2023-01-22T04:16:07.511Z,7.57
2023-01-22T04:21:16.035Z,7.17
2023-01-22T04:26:24.962Z,5.60
2023-01-22T04:31:33.177Z,4.80
2023-01-22T04:36:41.829Z,6.17
2023-01-22T04:41:48.722Z,6.03
2023-01-22T04:46:55.632Z,6.73
2023-01-22T04:52:02.622Z,5.03
2023-01-22T04:57:10.025Z,5.80
2023-01-22T05:02:17.256Z,6.80
2023-01-22T05:07:24.755Z,6.47
2023-01-22T05:12:32.041Z,4.60
2023-01-22T05:17:40.359Z,5.80
2023-01-22T05:22:47.339Z,5.17
2023-01-22T05:27:55.786Z,4.63
2023-01-22T05:33:04.272Z,6.80
2023-01-22T05:38:11.347Z,4.80
2023-01-22T05:43:18.596Z,4.27
2023-01-22T05:48:27.163Z,7.70
2023-01-22T05:53:36.568Z,5.17
2023-01-22T05:58:44.220Z,4.53
2023-01-22T06:03:52.326Z,6.53
2023-01-22T06:09:00.889Z,5.13
2023-01-22T06:14:09.403Z,5.63
2023-01-22T06:19:16.950Z,4.63
2023-01-22T06:24:25.560Z,6.23
2023-01-22T06:29:33.377Z,4.70
2023-01-22T06:34:40.785Z,5.63
2023-01-22T06:39:47.935Z,4.07
2023-01-22T06:44:57.315Z,4.20
2023-01-22T06:50:06.832Z,4.63
2023-01-22T06:55:13.796Z,3.67
2023-01-22T07:00:21.577Z,4.10
2023-01-22T07:05:28.638Z,4.20
2023-01-22T07:10:35.666Z,3.50
2023-01-22T07:15:42.755Z,5.33
2023-01-22T07:20:49.754Z,5.20
2023-01-22T07:25:57.081Z,3.70
2023-01-22T07:31:04.282Z,4.43
2023-01-22T07:36:11.492Z,4.37
2023-01-22T07:41:25.863Z,3.70
2023-01-22T07:46:27.840Z,9.87
2023-01-22T07:51:35.165Z,16.73
2023-01-22T07:56:42.063Z,5.97
2023-01-22T08:01:49.093Z,3.80
2023-01-22T08:06:56.223Z,3.23
2023-01-22T08:12:03.156Z,3.63
2023-01-22T08:17:10.024Z,4.17
2023-01-22T08:22:18.510Z,4.60
2023-01-22T08:27:25.603Z,4.50
2023-01-22T08:32:32.534Z,4.40
2023-01-22T08:37:39.605Z,4.17
2023-01-22T08:42:49.472Z,3.13
2023-01-22T08:48:00.326Z,4.80
2023-01-22T08:53:07.276Z,5.00
2023-01-22T08:58:15.335Z,3.47
2023-01-22T09:03:25.682Z,3.70
2023-01-22T09:08:33.260Z,4.97
2023-01-22T09:13:40.256Z,4.47
2023-01-22T09:18:47.265Z,5.33
2023-01-22T09:23:54.385Z,3.40
2023-01-22T09:29:01.831Z,3.90
2023-01-22T09:34:08.948Z,4.73
2023-01-22T09:39:15.844Z,4.17
2023-01-22T09:44:25.955Z,4.07
2023-01-22T09:49:35.857Z,4.30
2023-01-22T09:54:44.840Z,3.73
2023-01-22T09:59:55.949Z,4.13
2023-01-22T10:05:05.843Z,2.87
2023-01-22T10:10:15.761Z,3.30
2023-01-22T10:15:25.251Z,3.00
2023-01-22T10:20:32.600Z,4.37
2023-01-22T10:25:39.869Z,5.23
2023-01-22T10:30:50.196Z,5.00
2023-01-22T10:35:59.722Z,3.97
2023-01-22T10:41:07.346Z,4.00
2023-01-22T10:46:17.284Z,3.90
2023-01-22T10:51:27.727Z,4.53
2023-01-22T10:56:37.711Z,4.17
2023-01-22T11:01:45.060Z,5.30
2023-01-22T11:06:55.079Z,3.80
2023-01-22T11:12:04.914Z,3.93
2023-01-22T11:17:14.686Z,5.60
2023-01-22T11:22:24.852Z,10.90
2023-01-22T11:27:34.740Z,5.40
2023-01-22T11:32:44.614Z,3.93
2023-01-22T11:37:51.015Z,3.80
2023-01-22T11:43:00.900Z,5.57
2023-01-22T11:48:10.669Z,8.13
2023-01-22T11:53:20.673Z,8.87
2023-01-22T11:58:30.574Z,5.17
2023-01-22T12:03:38.640Z,4.27
2023-01-22T12:08:49.795Z,4.90
2023-01-22T12:13:59.503Z,4.67
2023-01-22T12:19:09.335Z,4.93
2023-01-22T12:24:17.468Z,4.37
2023-01-22T12:29:29.229Z,3.93
2023-01-22T12:34:39.523Z,6.07
2023-01-22T12:39:47.271Z,3.83
2023-01-22T12:44:55.775Z,4.00
2023-01-22T12:50:04.769Z,4.40
2023-01-22T12:55:17.070Z,6.53
2023-01-22T13:00:28.079Z,6.27
2023-01-22T13:05:34.993Z,4.97
2023-01-22T13:10:45.042Z,6.50
2023-01-22T13:15:55.542Z,6.07
2023-01-22T13:21:03.703Z,5.60
2023-01-22T13:26:13.632Z,7.00
2023-01-22T13:31:21.506Z,6.30
2023-01-22T13:36:29.544Z,7.97
2023-01-22T13:41:40.914Z,7.03
2023-01-22T13:46:48.604Z,6.63
2023-01-22T13:51:58.984Z,7.57
2023-01-22T13:57:07.943Z,6.10
2023-01-22T14:02:17.888Z,7.50
2023-01-22T14:13:05.873Z,7.80
2023-01-22T14:18:16.622Z,6.50
2023-01-22T14:23:24.394Z,7.83
2023-01-22T14:28:33.755Z,6.77
2023-01-22T14:33:40.745Z,7.60
2023-01-22T14:38:49.674Z,7.57
2023-01-22T14:43:57.895Z,8.47
2023-01-22T14:49:06.592Z,9.60
2023-01-22T14:54:13.583Z,7.40
2023-01-22T14:59:21.056Z,8.10
2023-01-22T15:04:28.380Z,7.77
2023-01-22T15:09:35.316Z,9.97
2023-01-22T15:14:42.549Z,7.50
2023-01-22T15:19:50.038Z,10.10
2023-01-22T15:24:57.168Z,12.03
2023-01-22T15:30:08.272Z,8.03
2023-01-22T15:35:15.513Z,12.13
2023-01-22T15:40:22.359Z,11.00
2023-01-22T15:45:31.127Z,15.63
2023-01-22T15:50:38.032Z,15.73
2023-01-22T15:55:47.950Z,13.07
2023-01-22T16:00:57.301Z,13.53
2023-01-22T16:06:06.451Z,10.00
2023-01-22T16:11:14.348Z,9.80
2023-01-22T16:16:20.707Z,10.70
2023-01-22T16:21:28.127Z,11.23
2023-01-22T16:26:36.684Z,11.80
2023-01-22T16:31:43.794Z,9.37
2023-01-22T16:36:50.767Z,10.70
2023-01-22T16:41:58.352Z,11.53
2023-01-22T16:47:05.317Z,10.57
2023-01-22T16:52:22.477Z,10.70
2023-01-22T16:57:21.287Z,13.90
2023-01-22T17:02:29.050Z,12.47
2023-01-22T17:07:36.096Z,12.50
2023-01-22T17:12:43.042Z,15.33
2023-01-22T17:17:50.364Z,11.87
2023-01-22T17:22:58.132Z,13.77
2023-01-22T17:28:05.110Z,13.87
2023-01-22T17:38:22.747Z,13.77
2023-01-22T17:43:29.842Z,13.13
2023-01-22T17:48:38.115Z,14.77
2023-01-22T17:53:46.824Z,14.43
2023-01-22T17:58:56.909Z,12.33
2023-01-22T18:04:06.904Z,14.67
2023-01-22T18:09:14.103Z,12.20
2023-01-22T18:14:22.988Z,15.03
2023-01-22T18:19:30.371Z,13.83
2023-01-22T18:24:37.238Z,12.27
2023-01-22T18:29:44.214Z,12.93
2023-01-22T18:34:51.173Z,12.40
2023-01-22T18:39:58.051Z,14.53
2023-01-22T18:45:05.165Z,12.90
2023-01-22T18:50:14.128Z,13.27
2023-01-22T18:55:22.317Z,15.50
2023-01-22T19:00:29.703Z,11.80
2023-01-22T19:05:39.733Z,13.07
2023-01-22T19:10:48.185Z,13.40
2023-01-22T19:15:55.011Z,11.93
2023-01-22T19:21:05.153Z,14.00
2023-01-22T19:26:15.305Z,12.30
2023-01-22T19:31:25.259Z,13.23
2023-01-22T19:36:35.080Z,13.60
2023-01-22T19:41:42.859Z,13.83
2023-01-22T19:46:49.872Z,15.87
2023-01-22T19:51:57.017Z,12.50
2023-01-22T19:57:03.896Z,14.70
2023-01-22T20:02:14.214Z,12.73
2023-01-22T20:07:25.603Z,13.67
2023-01-22T20:12:32.431Z,11.33
2023-01-22T20:17:39.872Z,12.97
2023-01-22T20:22:46.834Z,11.50
2023-01-22T20:27:54.260Z,11.40
2023-01-22T20:33:01.469Z,9.40
2023-01-22T20:38:08.535Z,11.47
2023-01-22T20:43:17.276Z,11.83
2023-01-22T20:48:25.372Z,12.07
2023-01-22T20:53:32.913Z,14.57
2023-01-22T20:58:40.245Z,11.30
2023-01-22T21:03:48.943Z,11.87
2023-01-22T21:08:57.004Z,11.00
2023-01-22T21:14:05.325Z,10.83
2023-01-22T21:19:15.615Z,10.00
2023-01-22T21:24:22.669Z,9.57
2023-01-22T21:29:29.763Z,9.67
2023-01-22T21:34:36.917Z,10.87
2023-01-22T21:39:45.498Z,11.67
2023-01-22T21:44:54.126Z,10.90
2023-01-22T21:50:01.088Z,12.03
2023-01-22T21:55:08.512Z,9.13
2023-01-22T22:00:17.119Z,11.93
2023-01-22T22:05:24.109Z,11.63
2023-01-22T22:10:31.263Z,11.13
2023-01-22T22:15:39.201Z,10.57
2023-01-22T22:20:46.174Z,9.83
2023-01-22T22:25:53.725Z,11.33
2023-01-22T22:31:03.640Z,12.27
2023-01-22T22:36:12.051Z,11.93
2023-01-22T22:41:21.516Z,11.27
2023-01-22T22:46:31.666Z,8.77
2023-01-22T22:51:41.078Z,9.87
2023-01-22T22:56:49.595Z,11.83
2023-01-22T23:01:56.357Z,11.83
2023-01-22T23:07:03.472Z,15.63
2023-01-22T23:12:10.260Z,13.07
2023-01-22T23:17:17.146Z,10.30
2023-01-22T23:22:24.128Z,11.93
2023-01-22T23:27:31.548Z,10.27
2023-01-22T23:32:39.227Z,11.37
2023-01-22T23:37:46.457Z,9.83
2023-01-22T23:42:53.335Z,10.07
2023-01-22T23:48:02.140Z,9.47
2023-01-22T23:53:08.967Z,9.03
2023-01-22T23:58:16.107Z,12.37
